Time;durP1;ratioP1;P1;durP2;ratioP2;P2;SDS_P1;SDS_P2;PMS_P1;PMS_P2;Temp;Humidity;BMP_temperature;BMP_pressure;BME280_temperature;BME280_humidity;BME280_pressure;Samples;Min_cycle;Max_cycle;Signal;HPM_P1;HPM_P2
2023/06/26 00:01:29;;;;;;;;;;;23.70;63.00;;;22.72;57.03;99487.78;10248185;28;1906;-66
2023/06/26 00:06:25;;;;;;;;;;;23.70;63.90;;;22.72;56.84;99482.47;10248384;28;1569;-66
2023/06/26 00:11:21;;;;;;;;;;;23.70;63.00;;;22.73;56.91;99478.84;10248087;28;847;-67
2023/06/26 00:16:16;;;;;;;;;;;23.70;62.90;;;22.72;57.00;99482.47;10248108;28;810;-66
2023/06/26 00:21:12;;;;;;;;;;;23.60;62.90;;;22.73;56.90;99485.97;10247075;28;1902;-66
2023/06/26 00:26:07;;;;;;;;;;;23.60;62.80;;;22.73;56.81;99483.31;10247040;28;980;-66
2023/06/26 00:31:02;;;;;;;;;;;23.70;62.90;;;22.72;57.01;99471.81;10246940;28;1110;-67
2023/06/26 00:35:58;;;;;;;;;;;23.60;62.80;;;22.72;56.90;99471.81;10248112;28;845;-66
2023/06/26 00:40:54;;;;;;;;;;;23.60;62.80;;;22.73;57.09;99475.34;10246865;28;1911;-67
2023/06/26 00:45:50;;;;;;;;;;;23.60;62.80;;;22.73;56.83;99472.69;10246140;28;1606;-66
2023/06/26 00:50:45;;;;;;;;;;;23.60;62.80;;;22.72;57.02;99470.97;10246626;28;810;-66
2023/06/26 00:55:40;;;;;;;;;;;23.60;62.70;;;22.73;56.94;99462.03;10245855;28;856;-66
2023/06/26 01:00:36;;;;;;;;;;;23.60;62.80;;;22.70;56.89;99463.09;10245459;28;1914;-66
2023/06/26 01:05:31;;;;;;;;;;;23.60;62.70;;;22.72;56.93;99465.66;10244132;28;955;-66
2023/06/26 01:10:30;;;;;;;;;;;23.60;62.70;;;22.72;56.65;99455.03;10244912;28;1374;-66
2023/06/26 01:15:25;;;;;;;;;;;23.60;62.70;;;22.70;56.92;99447.16;10245547;28;938;-66
2023/06/26 01:20:21;;;;;;;;;;;23.60;62.70;;;22.71;56.77;99442.69;10244908;28;1977;-66
2023/06/26 01:25:18;;;;;;;;;;;23.60;63.50;;;22.71;56.58;99445.34;10245594;28;853;-66
2023/06/26 01:30:13;;;;;;;;;;;23.60;62.60;;;22.71;56.71;99437.38;10244536;28;888;-66
2023/06/26 01:35:08;;;;;;;;;;;23.60;62.60;;;22.70;56.84;99436.53;10244516;28;1822;-67
2023/06/26 01:40:07;;;;;;;;;;;23.60;62.60;;;22.70;56.58;99422.41;10244277;28;1957;-67
2023/06/26 01:45:02;;;;;;;;;;;23.60;62.60;;;22.71;56.78;99426.75;10244881;28;796;-67
2023/06/26 01:49:58;;;;;;;;;;;23.60;62.50;;;22.70;56.63;99423.25;10244801;28;798;-67
2023/06/26 01:54:54;;;;;;;;;;;23.60;62.50;;;22.69;56.60;99424.22;10244089;28;899;-67
2023/06/26 01:59:49;;;;;;;;;;;23.60;62.50;;;22.69;56.59;99418.91;10243881;28;1902;-67
2023/06/26 02:04:48;;;;;;;;;;;23.60;62.50;;;22.69;56.72;99415.41;10243930;28;755;-66
2023/06/26 02:09:43;;;;;;;;;;;23.60;62.50;;;22.68;56.68;99413.69;10243770;28;895;-66
2023/06/26 02:14:38;;;;;;;;;;;23.60;62.50;;;22.70;56.70;99406.47;10247580;28;806;-67
2023/06/26 02:19:34;;;;;;;;;;;23.60;62.50;;;22.69;56.54;99412.75;10251758;28;1906;-67
2023/06/26 02:24:30;;;;;;;;;;;23.60;62.40;;;22.68;56.54;99406.56;10252770;28;796;-66
2023/06/26 02:29:25;;;;;;;;;;;23.60;62.40;;;22.68;56.58;99400.41;10251987;28;868;-66
2023/06/26 02:34:20;;;;;;;;;;;23.60;62.50;;;22.69;56.54;99396.81;10252365;28;1161;-66
2023/06/26 02:39:16;;;;;;;;;;;23.60;63.30;;;22.67;56.72;99396.91;10251156;28;1914;-66
2023/06/26 02:44:12;;;;;;;;;;;23.60;62.50;;;22.67;56.70;99391.59;10250881;28;941;-67
2023/06/26 02:49:07;;;;;;;;;;;23.60;62.40;;;22.67;56.67;99401.38;10250909;28;917;-67
2023/06/26 02:54:03;;;;;;;;;;;23.60;62.50;;;22.67;56.68;99398.72;10251015;28;866;-66
2023/06/26 02:58:58;;;;;;;;;;;23.60;62.50;;;22.67;56.55;99402.22;10250871;28;1907;-66
2023/06/26 03:03:54;;;;;;;;;;;23.60;62.40;;;22.67;56.57;99396.06;10249506;28;1047;-66
2023/06/26 03:08:49;;;;;;;;;;;23.60;62.40;;;22.66;56.68;99399.66;10249817;28;890;-66
2023/06/26 03:13:45;;;;;;;;;;;23.60;62.40;;;22.67;56.57;99409.34;10249682;28;886;-67
2023/06/26 03:18:40;;;;;;;;;;;23.60;62.40;;;22.65;56.73;99405.94;10250325;28;1906;-66
2023/06/26 03:23:35;;;;;;;;;;;23.60;62.40;;;22.65;56.53;99405.94;10249404;28;877;-66
2023/06/26 03:28:31;;;;;;;;;;;23.60;62.50;;;22.66;56.69;99415.59;10248131;28;775;-66
2023/06/26 03:33:26;;;;;;;;;;;23.60;62.50;;;22.65;56.35;99411.25;10249279;28;1408;-66
2023/06/26 03:38:22;;;;;;;;;;;23.60;62.50;;;22.65;56.83;99413.91;10249500;28;1981;-66
2023/06/26 03:43:17;;;;;;;;;;;23.60;62.50;;;22.65;56.78;99416.56;10249280;28;776;-66
2023/06/26 03:48:12;;;;;;;;;;;23.60;62.50;;;22.64;56.76;99426.34;10249387;28;771;-66
2023/06/26 03:53:08;;;;;;;;;;;23.60;62.50;;;22.64;56.63;99421.03;10248943;28;789;-66
2023/06/26 03:58:03;;;;;;;;;;;23.60;62.50;;;22.63;56.51;99419.31;10247463;28;1909;-66
2023/06/26 04:02:59;;;;;;;;;;;23.50;62.40;;;22.63;56.61;99431.75;10248536;28;837;-66
2023/06/26 04:07:54;;;;;;;;;;;23.50;62.40;;;22.63;56.49;99421.13;10247797;28;810;-63
2023/06/26 04:12:49;;;;;;;;;;;23.50;62.30;;;22.63;56.63;99427.28;10247549;28;889;-66
2023/06/26 04:17:45;;;;;;;;;;;23.60;62.50;;;22.63;56.47;99427.28;10247365;28;1973;-67
2023/06/26 04:22:40;;;;;;;;;;;23.50;62.30;;;22.65;56.41;99435.16;10248104;28;880;-67
2023/06/26 04:27:35;;;;;;;;;;;23.50;62.30;;;22.63;56.68;99437.91;10246443;28;903;-67
2023/06/26 04:32:31;;;;;;;;;;;23.50;62.40;;;22.63;56.75;99451.19;10246910;28;1236;-65
2023/06/26 04:37:26;;;;;;;;;;;23.50;62.60;;;22.63;56.70;99448.53;10245850;28;892;-66
2023/06/26 04:42:22;;;;;;;;;;;23.50;62.60;;;22.64;56.76;99452.06;10245675;28;1910;-66
2023/06/26 04:47:17;;;;;;;;;;;23.50;62.70;;;22.62;56.17;99449.50;10246137;28;969;-67
2023/06/26 04:52:15;;;;;;;;;;;23.50;62.40;;;22.60;55.98;99456.72;10245402;28;1187;-67
2023/06/26 04:57:11;;;;;;;;;;;23.50;61.80;;;22.60;55.35;99463.84;10245823;28;779;-66
2023/06/26 05:02:07;;;;;;;;;;;23.50;61.50;;;22.57;55.63;99470.22;10245499;28;1961;-67
2023/06/26 05:07:04;;;;;;;;;;;23.50;61.20;;;22.54;55.01;99476.59;10245305;28;1135;-66
2023/06/26 05:12:00;;;;;;;;;;;23.50;60.70;;;22.54;55.18;99473.06;10245846;28;923;-67
2023/06/26 05:16:55;;;;;;;;;;;23.50;60.60;;;22.54;55.32;99476.59;10245749;28;791;-66
2023/06/26 05:21:50;;;;;;;;;;;23.50;60.50;;;22.54;55.42;99483.72;10244931;28;1984;-67
2023/06/26 05:26:46;;;;;;;;;;;23.50;60.50;;;22.53;55.19;99479.31;10244773;28;998;-67
2023/06/26 05:31:41;;;;;;;;;;;23.50;60.80;;;22.53;55.32;99487.28;10245118;28;1134;-66
2023/06/26 05:36:37;;;;;;;;;;;23.50;60.40;;;22.53;55.25;99490.81;10245374;28;828;-65
2023/06/26 05:41:32;;;;;;;;;;;23.40;60.30;;;22.59;55.21;99500.19;10244345;28;1914;-66
2023/06/26 05:46:27;;;;;;;;;;;23.50;60.60;;;22.59;55.06;99499.34;10243753;28;790;-70
2023/06/26 05:51:23;;;;;;;;;;;23.40;60.70;;;22.60;55.26;99504.53;10244210;28;814;-66
2023/06/26 05:56:18;;;;;;;;;;;23.50;60.90;;;22.62;54.97;99494.66;10244680;28;883;-66
2023/06/26 06:01:14;;;;;;;;;;;23.50;61.10;;;22.63;55.41;99490.19;10244279;28;1902;-66
2023/06/26 06:06:09;;;;;;;;;;;23.50;61.20;;;22.64;55.31;99499.88;10243991;28;771;-66
2023/06/26 06:11:05;;;;;;;;;;;23.50;61.30;;;22.64;55.19;99502.53;10244934;28;815;-67
2023/06/26 06:16:00;;;;;;;;;;;23.50;61.20;;;22.64;55.22;99514.00;10243795;28;922;-65
2023/06/26 06:20:56;;;;;;;;;;;23.50;61.40;;;22.65;55.23;99507.72;10244146;28;1902;-65
2023/06/26 06:25:51;;;;;;;;;;;23.50;61.30;;;22.67;55.06;99527.09;10243443;28;950;-65
2023/06/26 06:30:47;;;;;;;;;;;23.50;61.30;;;22.69;55.24;99527.84;10243219;28;1241;-66
2023/06/26 06:35:42;;;;;;;;;;;23.50;62.40;;;22.70;55.20;99540.16;10244010;28;899;-68
2023/06/26 06:40:38;;;;;;;;;;;23.50;61.60;;;22.70;55.67;99541.97;10243101;28;1914;-66
2023/06/26 06:45:33;;;;;;;;;;;23.50;61.80;;;22.67;55.76;99544.84;10243105;28;818;-66
2023/06/26 06:50:28;;;;;;;;;;;23.50;61.90;;;22.66;55.85;99546.66;10242984;28;824;-66
2023/06/26 06:55:25;;;;;;;;;;;23.50;62.00;;;22.69;56.08;99542.94;10243577;28;849;-66
2023/06/26 07:00:21;;;;;;;;;;;23.50;62.00;;;22.67;55.88;99543.03;10246436;28;1973;-66
2023/06/26 07:05:16;;;;;;;;;;;23.50;62.00;;;22.67;56.11;99552.81;10250744;28;861;-67
2023/06/26 07:10:11;;;;;;;;;;;23.50;62.00;;;22.64;55.97;99563.66;10249312;28;838;-66
2023/06/26 07:15:07;;;;;;;;;;;23.50;62.10;;;22.61;56.09;99554.06;10249781;28;801;-67
2023/06/26 07:20:06;;;;;;;;;;;23.50;62.10;;;22.65;56.08;99539.63;10249543;28;1914;-67
2023/06/26 07:25:02;;;;;;;;;;;23.50;62.10;;;22.66;56.22;99553.75;10249276;28;903;-68
2023/06/26 07:29:57;;;;;;;;;;;23.50;62.10;;;22.65;55.95;99568.00;10249792;28;954;-66
2023/06/26 07:34:53;;;;;;;;;;;23.50;62.10;;;22.66;56.10;99577.66;10249629;28;1128;-66
2023/06/26 07:39:48;;;;;;;;;;;23.40;62.00;;;22.67;55.95;99605.94;10248863;28;1969;-66
2023/06/26 07:44:43;;;;;;;;;;;23.40;62.00;;;22.67;55.83;99605.94;10249219;28;933;-67
2023/06/26 07:49:39;;;;;;;;;;;23.50;62.20;;;22.65;55.93;99615.81;10247951;28;842;-66
2023/06/26 07:54:34;;;;;;;;;;;23.50;62.20;;;22.64;56.01;99616.78;10248872;28;787;-66
2023/06/26 07:59:30;;;;;;;;;;;23.50;62.30;;;22.62;56.17;99622.19;10248658;28;1941;-66
2023/06/26 08:04:25;;;;;;;;;;;23.40;62.20;;;22.65;55.88;99605.19;10247965;28;960;-67
2023/06/26 08:09:21;;;;;;;;;;;23.40;62.10;;;22.66;56.21;99609.53;10248349;28;863;-67
2023/06/26 08:14:16;;;;;;;;;;;23.40;62.10;;;22.66;55.95;99599.78;10247612;28;849;-67
2023/06/26 08:19:12;;;;;;;;;;;23.40;62.10;;;22.66;56.15;99601.56;10247928;28;1960;-66
2023/06/26 08:24:07;;;;;;;;;;;23.40;62.10;;;22.65;56.12;99606.03;10247181;28;835;-66
2023/06/26 08:29:08;;;;;;;;;;;23.40;62.20;;;22.67;56.04;99619.22;10246977;28;864;-67
2023/06/26 08:34:03;;;;;;;;;;;23.50;62.30;;;22.66;55.80;99625.47;10247084;28;1324;-66
2023/06/26 08:38:58;;;;;;;;;;;23.40;62.20;;;22.68;55.81;99621.75;10246543;28;1980;-66
2023/06/26 08:43:54;;;;;;;;;;;23.40;62.20;;;22.69;55.91;99647.41;10246508;28;818;-66
2023/06/26 08:48:50;;;;;;;;;;;23.40;62.20;;;22.70;55.95;99641.13;10246212;28;847;-66
2023/06/26 08:53:45;;;;;;;;;;;23.40;62.20;;;22.70;56.01;99642.94;10246252;28;852;-66
2023/06/26 08:58:41;;;;;;;;;;;23.40;62.20;;;22.68;55.99;99660.78;10246021;28;1958;-67
2023/06/26 09:03:36;;;;;;;;;;;23.40;62.20;;;22.70;55.87;99653.56;10246528;28;1039;-70
2023/06/26 09:08:31;;;;;;;;;;;23.40;63.10;;;22.77;55.67;99657.53;10245442;28;874;-68
2023/06/26 09:13:27;;;;;;;;;;;23.50;62.10;;;22.81;55.71;99660.81;10244746;28;966;-70
2023/06/26 09:18:22;;;;;;;;;;;23.50;62.20;;;22.83;55.78;99659.78;10245508;28;1915;-70
2023/06/26 09:23:18;;;;;;;;;;;23.50;62.20;;;22.84;55.77;99668.59;10244219;28;1034;-70
2023/06/26 09:28:15;;;;;;;;;;;23.50;62.10;;;22.82;55.70;99670.50;10245393;28;763;-70
2023/06/26 09:33:11;;;;;;;;;;;23.50;62.10;;;22.81;55.53;99677.63;10245240;28;1383;-70
2023/06/26 09:38:06;;;;;;;;;;;23.50;62.10;;;22.86;55.48;99664.88;10244441;28;1910;-70
2023/06/26 09:43:01;;;;;;;;;;;23.50;62.00;;;22.88;55.40;99668.31;10244327;28;790;-70
2023/06/26 09:47:57;;;;;;;;;;;23.50;61.90;;;22.84;55.46;99663.28;10245203;28;790;-70
2023/06/26 09:52:52;;;;;;;;;;;23.50;61.90;;;22.84;55.55;99672.09;10244792;28;786;-70
2023/06/26 09:57:48;;;;;;;;;;;23.50;61.90;;;22.84;55.59;99666.78;10244678;28;794;-69
2023/06/26 10:02:43;;;;;;;;;;;23.50;61.90;;;22.82;55.52;99668.72;10243973;28;1911;-70
2023/06/26 10:07:38;;;;;;;;;;;23.50;61.90;;;22.86;55.45;99664.88;10244516;28;847;-69
2023/06/26 10:12:35;;;;;;;;;;;23.50;61.90;;;22.90;55.45;99670.88;10243853;28;870;-69
2023/06/26 10:17:30;;;;;;;;;;;23.50;61.80;;;22.85;55.55;99686.25;10243587;28;963;-70
2023/06/26 10:22:26;;;;;;;;;;;23.50;61.80;;;22.88;55.18;99681.59;10243589;28;1981;-70
2023/06/26 10:27:21;;;;;;;;;;;23.50;61.70;;;22.91;55.33;99702.66;10244021;28;909;-72
2023/06/26 10:32:16;;;;;;;;;;;23.50;61.70;;;22.91;55.27;99701.78;10242697;28;1240;-70
2023/06/26 10:37:12;;;;;;;;;;;23.50;61.70;;;22.93;55.00;99700.75;10249590;28;968;-70
2023/06/26 10:42:07;;;;;;;;;;;23.50;61.60;;;22.94;55.22;99689.16;10251601;28;1910;-70
2023/06/26 10:47:02;;;;;;;;;;;23.50;61.60;;;22.90;55.29;99697.44;10250233;28;977;-69
2023/06/26 10:51:58;;;;;;;;;;;23.50;61.60;;;22.86;55.56;99703.91;10251298;28;826;-70
2023/06/26 10:56:56;;;;;;;;;;;23.50;61.70;;;22.89;55.25;99706.34;10250487;28;987;-70
2023/06/26 11:01:51;;;;;;;;;;;23.50;61.60;;;22.93;55.29;99702.56;10250327;28;1960;-70
2023/06/26 11:06:48;;;;;;;;;;;23.50;61.50;;;22.94;55.17;99715.72;10250812;28;861;-69
2023/06/26 11:11:43;;;;;;;;;;;23.60;61.50;;;22.96;54.88;99712.97;10250007;28;806;-69
2023/06/26 11:16:39;;;;;;;;;;;23.60;61.40;;;22.93;55.21;99706.06;10249738;28;825;-69
2023/06/26 11:21:34;;;;;;;;;;;23.60;61.30;;;22.89;55.20;99703.69;10249006;28;1910;-70
2023/06/26 11:26:30;;;;;;;;;;;23.50;61.20;;;22.88;54.99;99724.13;10250805;28;927;-70
2023/06/26 11:31:25;;;;;;;;;;;23.50;61.20;;;22.90;54.98;99726.69;10249779;28;1146;-70
2023/06/26 11:36:21;;;;;;;;;;;23.50;61.10;;;22.86;54.90;99714.53;10248993;28;923;-69
2023/06/26 11:41:16;;;;;;;;;;;23.50;61.50;;;22.90;54.97;99724.88;10248812;28;1914;-69
2023/06/26 11:46:11;;;;;;;;;;;23.50;60.90;;;22.91;54.81;99737.19;10247293;28;893;-69
2023/06/26 11:51:07;;;;;;;;;;;23.50;60.80;;;22.93;54.65;99745.94;10248592;28;956;-70
2023/06/26 11:56:02;;;;;;;;;;;23.60;60.90;;;22.96;54.52;99726.28;10248338;28;867;-69
2023/06/26 12:00:58;;;;;;;;;;;23.60;60.80;;;22.98;54.56;99732.38;10248081;28;1898;-70
2023/06/26 12:05:53;;;;;;;;;;;23.60;60.70;;;22.95;54.49;99752.00;10248667;28;802;-69
2023/06/26 12:10:49;;;;;;;;;;;23.60;60.60;;;22.90;54.57;99746.13;10245769;28;1115;-70
2023/06/26 12:15:44;;;;;;;;;;;23.60;60.70;;;22.88;54.79;99753.34;10246831;28;918;-69
2023/06/26 12:20:39;;;;;;;;;;;23.50;60.60;;;22.86;54.61;99775.66;10247082;28;1914;-69
2023/06/26 12:25:35;;;;;;;;;;;23.50;60.50;;;22.86;54.80;99776.50;10247148;28;883;-69
2023/06/26 12:30:30;;;;;;;;;;;23.50;60.50;;;22.87;54.61;99780.00;10246980;28;816;-70
2023/06/26 12:35:26;;;;;;;;;;;23.50;60.50;;;22.90;54.83;99783.34;10246131;28;1408;-65
2023/06/26 12:40:22;;;;;;;;;;;23.50;60.70;;;22.93;54.73;99779.63;10246928;28;1914;-65
2023/06/26 12:45:17;;;;;;;;;;;23.50;61.10;;;22.91;55.44;99785.03;10246956;28;1040;-65
2023/06/26 12:50:13;;;;;;;;;;;23.50;61.70;;;22.87;55.45;99791.53;10246159;28;930;-67
2023/06/26 12:55:08;;;;;;;;;;;23.50;62.00;;;22.87;55.41;99788.00;10245992;28;1382;-67
2023/06/26 13:00:05;;;;;;;;;;;23.50;62.10;;;22.87;55.33;99804.81;10245686;28;1959;-67
2023/06/26 13:05:00;;;;;;;;;;;23.50;61.90;;;22.86;55.79;99810.22;10246409;28;825;-67
2023/06/26 13:09:55;;;;;;;;;;;23.50;61.90;;;22.88;55.42;99816.28;10245869;28;862;-67
2023/06/26 13:14:51;;;;;;;;;;;23.50;61.90;;;22.93;55.24;99815.03;10245697;28;1052;-66
2023/06/26 13:19:46;;;;;;;;;;;23.50;61.90;;;22.88;55.29;99806.50;10244836;28;1910;-67
2023/06/26 13:24:42;;;;;;;;;;;23.50;61.90;;;22.89;55.45;99802.03;10245272;28;806;-67
2023/06/26 13:29:37;;;;;;;;;;;23.50;61.90;;;22.86;55.54;99811.06;10244490;28;879;-67
2023/06/26 13:34:32;;;;;;;;;;;23.50;61.90;;;22.93;55.36;99809.72;10244367;28;1331;-67
2023/06/26 13:39:28;;;;;;;;;;;23.60;62.00;;;22.91;55.18;99821.41;10245270;28;1977;-67
2023/06/26 13:44:23;;;;;;;;;;;23.60;61.90;;;22.91;55.32;99827.56;10244174;28;764;-67
2023/06/26 13:49:19;;;;;;;;;;;23.60;61.80;;;22.89;55.40;99833.94;10244848;28;810;-67
2023/06/26 13:54:14;;;;;;;;;;;23.60;61.80;;;22.87;55.29;99830.50;10244613;28;814;-67
2023/06/26 13:59:11;;;;;;;;;;;23.50;61.70;;;22.89;55.36;99831.28;10244393;28;1965;-67
2023/06/26 14:04:07;;;;;;;;;;;23.50;61.60;;;22.88;55.36;99824.25;10243230;28;1253;-66
2023/06/26 14:09:03;;;;;;;;;;;23.50;61.50;;;23.00;54.86;99826.16;10246066;28;870;-65
2023/06/26 14:13:59;;;;;;;;;;;23.60;61.60;;;23.07;54.89;99829.28;10251855;28;970;-65
2023/06/26 14:18:54;;;;;;;;;;;23.60;61.60;;;23.09;54.53;99833.56;10251601;28;1902;-67
2023/06/26 14:23:50;;;;;;;;;;;23.60;61.50;;;22.99;54.84;99840.41;10251582;28;818;-67
2023/06/26 14:28:45;;;;;;;;;;;23.60;61.60;;;23.12;54.76;99845.81;10251970;28;789;-67
2023/06/26 14:33:40;;;;;;;;;;;23.60;61.40;;;23.21;54.45;99839.03;10251138;28;1282;-67
2023/06/26 14:38:36;;;;;;;;;;;23.60;61.30;;;23.29;54.21;99842.91;10250901;28;1910;-69
2023/06/26 14:43:31;;;;;;;;;;;23.70;60.80;;;23.36;54.03;99848.69;10251337;28;922;-67
2023/06/26 14:48:27;;;;;;;;;;;23.80;61.00;;;23.35;54.10;99837.19;10250621;28;870;-67
2023/06/26 14:53:22;;;;;;;;;;;23.80;60.50;;;23.31;54.32;99845.47;10250497;28;767;-67
2023/06/26 14:58:18;;;;;;;;;;;23.80;60.40;;;23.29;54.13;99847.34;10250262;28;1966;-67
2023/06/26 15:03:13;;;;;;;;;;;23.80;60.80;;;23.27;54.37;99842.16;10251074;28;942;-67
2023/06/26 15:08:10;;;;;;;;;;;23.80;60.30;;;23.11;54.51;99858.25;10250962;28;868;-70
2023/06/26 15:13:07;;;;;;;;;;;23.70;60.40;;;23.00;54.92;99863.38;10250445;28;865;-67
2023/06/26 15:18:04;;;;;;;;;;;23.60;61.10;;;22.95;55.02;99876.94;10249860;28;945;-68
2023/06/26 15:23:00;;;;;;;;;;;23.70;61.30;;;22.92;55.08;99857.66;10248156;28;1966;-67
2023/06/26 15:27:55;;;;;;;;;;;23.60;61.30;;;22.91;55.13;99861.28;10249463;28;833;-67
2023/06/26 15:32:50;;;;;;;;;;;23.60;61.30;;;22.89;55.05;99860.50;10249539;28;1666;-67
2023/06/26 15:37:46;;;;;;;;;;;23.60;61.20;;;22.86;55.22;99855.41;10249068;28;948;-67
2023/06/26 15:42:41;;;;;;;;;;;23.60;61.20;;;22.87;55.35;99857.09;10247170;28;1918;-67
2023/06/26 15:47:37;;;;;;;;;;;23.60;61.20;;;22.86;54.94;99871.34;10247668;28;896;-67
2023/06/26 15:52:32;;;;;;;;;;;23.60;61.30;;;22.84;55.40;99871.44;10248514;28;938;-67
2023/06/26 15:57:27;;;;;;;;;;;23.60;61.30;;;22.85;55.21;99882.94;10249417;28;826;-67
2023/06/26 16:02:23;;;;;;;;;;;23.60;61.30;;;22.83;55.12;99877.69;10248049;28;1910;-67
2023/06/26 16:07:18;;;;;;;;;;;23.60;61.30;;;22.84;55.22;99875.88;10247970;28;771;-67
2023/06/26 16:12:14;;;;;;;;;;;23.50;61.20;;;22.82;55.16;99870.69;10247722;28;825;-67
2023/06/26 16:17:09;;;;;;;;;;;23.60;61.30;;;22.82;55.06;99875.13;10247499;28;864;-67
2023/06/26 16:22:04;;;;;;;;;;;23.60;61.30;;;22.81;55.01;99873.44;10247353;28;1886;-67
2023/06/26 16:27:00;;;;;;;;;;;23.50;61.10;;;22.81;55.03;99870.78;10247694;28;784;-67
2023/06/26 16:31:55;;;;;;;;;;;23.60;61.30;;;22.81;55.26;99876.94;10246333;28;1450;-67
2023/06/26 16:36:51;;;;;;;;;;;23.50;61.30;;;22.79;55.40;99876.16;10246784;28;854;-67
2023/06/26 16:41:48;;;;;;;;;;;23.50;61.30;;;22.79;55.15;99875.31;10246445;28;1979;-67
2023/06/26 16:46:44;;;;;;;;;;;23.50;61.20;;;22.79;55.20;99877.97;10245821;28;1066;-67
2023/06/26 16:51:39;;;;;;;;;;;23.50;61.10;;;22.77;55.27;99888.72;10246243;28;822;-67
2023/06/26 16:56:35;;;;;;;;;;;23.50;61.20;;;22.78;55.41;99886.91;10246009;28;833;-67
2023/06/26 17:01:30;;;;;;;;;;;23.50;61.10;;;22.76;55.03;99893.16;10245862;28;1918;-67
2023/06/26 17:06:25;;;;;;;;;;;23.50;61.10;;;22.76;55.14;99893.16;10246289;28;873;-67
2023/06/26 17:11:21;;;;;;;;;;;23.50;61.10;;;22.76;55.09;99914.41;10245491;28;763;-67
2023/06/26 17:16:16;;;;;;;;;;;23.50;61.00;;;22.74;55.02;99911.03;10244756;28;917;-67
2023/06/26 17:21:12;;;;;;;;;;;23.50;61.10;;;22.73;54.99;99919.94;10245106;28;1910;-67
2023/06/26 17:26:08;;;;;;;;;;;23.50;61.00;;;22.74;55.12;99918.13;10244919;28;903;-67
2023/06/26 17:31:03;;;;;;;;;;;23.50;60.90;;;22.74;55.21;99932.28;10244678;28;1013;-67
2023/06/26 17:35:59;;;;;;;;;;;23.50;61.00;;;22.74;55.15;99936.72;10244685;28;990;-67
2023/06/26 17:40:54;;;;;;;;;;;23.50;61.00;;;22.73;55.21;99940.34;10243998;28;1910;-67
2023/06/26 17:45:49;;;;;;;;;;;23.50;61.00;;;22.73;55.02;99946.50;10243768;28;829;-67
2023/06/26 17:50:45;;;;;;;;;;;23.50;60.80;;;22.72;54.98;99944.81;10244292;28;715;-67
2023/06/26 17:55:40;;;;;;;;;;;23.50;61.00;;;22.71;55.06;99944.88;10244134;28;942;-67
2023/06/26 18:00:36;;;;;;;;;;;23.50;60.70;;;22.69;52.53;99941.50;10244432;28;2230;-67
2023/06/26 18:05:31;;;;;;;;;;;23.50;60.90;;;22.69;54.65;99955.63;10243969;28;826;-67
2023/06/26 18:10:26;;;;;;;;;;;23.50;60.80;;;22.70;54.72;99965.28;10244386;28;798;-67
2023/06/26 18:15:22;;;;;;;;;;;23.50;60.80;;;22.68;54.66;99969.00;10243717;28;810;-67
2023/06/26 18:20:17;;;;;;;;;;;23.50;60.70;;;22.69;54.50;99966.25;10243889;28;1910;-67
2023/06/26 18:25:13;;;;;;;;;;;23.50;60.60;;;22.67;54.83;99962.81;10244266;28;795;-67
2023/06/26 18:30:08;;;;;;;;;;;23.50;60.70;;;22.68;54.63;99969.00;10244059;28;816;-75
2023/06/26 18:35:04;;;;;;;;;;;23.50;60.60;;;22.69;54.76;99968.91;10242591;28;1280;-67
2023/06/26 18:40:00;;;;;;;;;;;23.50;60.60;;;22.69;54.82;99966.25;10243205;28;1973;-67
2023/06/26 18:44:55;;;;;;;;;;;23.50;60.80;;;22.70;54.79;99972.41;10243466;28;826;-67
2023/06/26 18:49:51;;;;;;;;;;;23.50;60.80;;;22.70;54.96;99973.25;10243166;28;931;-67
2023/06/26 18:54:47;;;;;;;;;;;23.50;60.80;;;22.71;54.63;99966.13;10243221;28;985;-67
2023/06/26 18:59:42;;;;;;;;;;;23.50;60.80;;;22.72;54.91;99982.00;10250525;28;1910;-68
2023/06/26 19:04:39;;;;;;;;;;;23.50;60.80;;;22.71;55.13;99969.66;10250435;28;854;-67
2023/06/26 19:09:34;;;;;;;;;;;23.50;60.90;;;22.71;54.78;99980.28;10250059;28;986;-68
2023/06/26 19:14:30;;;;;;;;;;;23.50;60.90;;;22.72;54.81;99981.16;10250876;28;838;-67
2023/06/26 19:19:25;;;;;;;;;;;23.50;60.90;;;22.72;54.98;99987.31;10250335;28;1914;-67
2023/06/26 19:24:20;;;;;;;;;;;23.50;61.80;;;22.71;55.05;99990.06;10250303;28;865;-67
2023/06/26 19:29:16;;;;;;;;;;;23.50;61.00;;;22.71;54.87;99990.91;10249372;28;759;-71
2023/06/26 19:34:11;;;;;;;;;;;23.50;60.80;;;22.70;54.82;99999.00;10249480;28;1281;-71
2023/06/26 19:39:07;;;;;;;;;;;23.50;60.70;;;22.66;54.62;100008.06;10249066;28;1973;-71
2023/06/26 19:44:02;;;;;;;;;;;23.50;59.80;;;22.62;54.01;100014.53;10248375;28;774;-67
2023/06/26 19:48:58;;;;;;;;;;;23.40;58.80;;;22.60;53.33;100016.41;10248317;28;916;-67
2023/06/26 19:53:53;;;;;;;;;;;23.40;59.30;;;22.61;53.96;100021.66;10248751;28;895;-67
2023/06/26 19:58:49;;;;;;;;;;;23.40;59.50;;;22.61;53.73;100021.66;10248237;28;1914;-67
2023/06/26 20:03:44;;;;;;;;;;;23.40;59.40;;;22.62;53.81;100028.66;10248037;28;795;-67
2023/06/26 20:08:39;;;;;;;;;;;23.40;59.60;;;22.61;53.98;100021.66;10247214;28;857;-67
2023/06/26 20:13:35;;;;;;;;;;;23.40;59.70;;;22.62;54.05;100022.50;10247757;28;822;-67
2023/06/26 20:18:31;;;;;;;;;;;23.40;59.60;;;22.61;54.06;100026.09;10248137;28;1909;-67
2023/06/26 20:23:26;;;;;;;;;;;23.40;59.70;;;22.61;54.13;100037.59;10247347;28;880;-67
2023/06/26 20:28:21;;;;;;;;;;;23.40;59.70;;;22.60;53.95;100038.53;10247324;28;927;-67
2023/06/26 20:33:17;;;;;;;;;;;23.40;59.70;;;22.60;53.89;100037.69;10246415;28;1272;-66
2023/06/26 20:38:12;;;;;;;;;;;23.40;59.80;;;22.60;53.80;100040.34;10246260;28;795;-67
2023/06/26 20:43:08;;;;;;;;;;;23.40;59.80;;;22.57;53.29;100048.50;10247149;28;1906;-67
2023/06/26 20:48:03;;;;;;;;;;;23.40;59.80;;;22.58;53.94;100052.84;10247103;28;827;-67
2023/06/26 20:52:58;;;;;;;;;;;23.40;59.80;;;22.59;53.48;100062.53;10246215;28;815;-67
2023/06/26 20:57:54;;;;;;;;;;;23.40;59.90;;;22.58;53.92;100060.81;10247247;28;949;-67
2023/06/26 21:02:49;;;;;;;;;;;23.40;59.90;;;22.58;53.23;100071.44;10246306;28;1902;-67
2023/06/26 21:07:45;;;;;;;;;;;23.40;59.90;;;22.56;53.29;100068.88;10245716;28;773;-67
2023/06/26 21:12:40;;;;;;;;;;;23.40;59.90;;;22.56;53.17;100078.63;10245580;28;857;-67
2023/06/26 21:17:35;;;;;;;;;;;23.40;59.90;;;22.58;53.63;100074.09;10244720;28;818;-68
2023/06/26 21:22:31;;;;;;;;;;;23.40;59.90;;;22.56;53.43;100073.31;10245708;28;1902;-67
2023/06/26 21:27:26;;;;;;;;;;;23.40;59.90;;;22.52;53.09;100081.47;10245653;28;810;-67
2023/06/26 21:32:22;;;;;;;;;;;23.30;59.80;;;22.54;53.59;100073.44;10245884;28;1426;-67
2023/06/26 21:37:17;;;;;;;;;;;23.40;59.90;;;22.52;53.42;100084.13;10244958;28;853;-67
2023/06/26 21:42:13;;;;;;;;;;;23.30;59.80;;;22.52;53.36;100086.78;10244537;28;1914;-67
2023/06/26 21:47:08;;;;;;;;;;;23.30;59.80;;;22.49;53.53;100092.28;10244434;28;959;-67
2023/06/26 21:52:03;;;;;;;;;;;23.30;59.80;;;22.49;53.34;100102.06;10244302;28;802;-67
2023/06/26 21:56:59;;;;;;;;;;;23.30;59.80;;;22.47;53.30;100103.94;10244830;28;874;-67
2023/06/26 22:01:54;;;;;;;;;;;23.30;59.70;;;22.44;53.15;100107.63;10244096;28;1906;-67
2023/06/26 22:06:50;;;;;;;;;;;23.30;59.60;;;22.44;52.95;100104.97;10243465;28;904;-67
2023/06/26 22:11:45;;;;;;;;;;;23.30;59.60;;;22.43;53.19;100103.28;10243891;28;931;-67
2023/06/26 22:16:40;;;;;;;;;;;23.30;59.50;;;22.44;53.26;100104.13;10243842;28;786;-67
2023/06/26 22:21:36;;;;;;;;;;;23.30;59.50;;;22.43;53.10;100110.38;10243735;28;1952;-67
2023/06/26 22:26:31;;;;;;;;;;;23.30;59.50;;;22.42;53.01;100098.03;10244257;28;918;-67
2023/06/26 22:31:27;;;;;;;;;;;23.30;59.30;;;22.45;53.05;100103.16;10246846;28;1466;-67
2023/06/26 22:36:22;;;;;;;;;;;23.30;59.40;;;22.46;53.13;100107.56;10250912;28;968;-67
2023/06/26 22:41:18;;;;;;;;;;;23.30;59.40;;;22.42;53.04;100112.16;10251451;28;1980;-67
2023/06/26 22:46:13;;;;;;;;;;;23.20;59.20;;;22.41;53.33;100101.66;10251159;28;877;-67